Time,TemperatureF,DewpointF,PressureIn,WindDirection,WindDirectionDegrees,WindSpeedMPH,WindSpeedGustMPH,Humidity,HourlyPrecipIn,Conditions,Clouds,dailyrainin,SoftwareType,DateUTC
2013-06-03 00:02:00,51.0,45.0,-100.00,SSW,195,0.0,0.0,79,0.00,,,0.00,,2013-06-03 05:02:00,
2013-06-03 00:12:00,52.0,45.0,-100.00,South,180,0.0,0.0,75,0.00,,,0.00,,2013-06-03 05:12:00,
2013-06-03 00:22:00,53.0,45.0,-100.00,SSE,160,0.0,0.0,73,0.00,,,0.00,,2013-06-03 05:22:00,
2013-06-03 00:32:00,51.0,45.0,-100.00,SSW,210,0.0,0.0,76,0.00,,,0.00,,2013-06-03 05:32:00,
2013-06-03 00:42:00,51.0,43.0,-100.00,SSW,205,0.0,0.0,75,0.00,,,0.00,,2013-06-03 05:42:00,
2013-06-03 00:52:00,51.0,43.0,-100.00,SSW,210,0.0,0.0,76,0.00,,,0.00,,2013-06-03 05:52:00,
2013-06-03 01:02:00,51.0,43.0,-100.00,South,185,0.0,0.0,75,0.00,,,0.00,,2013-06-03 06:02:00,
2013-06-03 01:12:00,51.0,43.0,-100.00,South,180,0.0,0.0,75,0.00,,,0.00,,2013-06-03 06:12:00,
2013-06-03 01:22:00,48.0,43.0,-100.00,SW,235,0.0,0.0,82,0.00,,,0.00,,2013-06-03 06:22:00,
2013-06-03 01:32:00,51.0,43.0,-100.00,SSW,205,0.0,0.0,71,0.00,,,0.00,,2013-06-03 06:32:00,
2013-06-03 01:42:00,49.0,43.0,-100.00,SW,215,0.0,0.0,77,0.00,,,0.00,,2013-06-03 06:42:00,
2013-06-03 01:52:00,51.0,43.0,-100.00,SW,230,0.0,0.0,71,0.00,,,0.00,,2013-06-03 06:52:00,
2013-06-03 02:02:00,49.0,43.0,-100.00,West,260,0.0,0.0,78,0.00,,,0.00,,2013-06-03 07:02:00,
2013-06-03 02:12:00,48.0,43.0,-100.00,SW,230,0.0,0.0,81,0.00,,,0.00,,2013-06-03 07:12:00,
2013-06-03 02:22:00,48.0,43.0,-100.00,SW,225,0.0,0.0,80,0.00,,,0.00,,2013-06-03 07:22:00,
2013-06-03 02:32:00,48.0,43.0,-100.00,SW,225,0.0,0.0,81,0.00,,,0.00,,2013-06-03 07:32:00,
2013-06-03 02:42:00,49.0,43.0,-100.00,SW,225,0.0,0.0,78,0.00,,,0.00,,2013-06-03 07:42:00,
2013-06-03 02:52:00,49.0,43.0,-100.00,SW,235,0.0,0.0,76,0.00,,,0.00,,2013-06-03 07:52:00,
2013-06-03 03:02:00,48.0,43.0,-100.00,WSW,240,0.0,0.0,79,0.00,,,0.00,,2013-06-03 08:02:00,
2013-06-03 03:12:00,47.0,43.0,-100.00,WSW,245,0.0,0.0,84,0.00,,,0.00,,2013-06-03 08:12:00,
2013-06-03 03:22:00,47.0,43.0,-100.00,WSW,240,0.0,0.0,84,0.00,,,0.00,,2013-06-03 08:22:00,
2013-06-03 03:32:00,48.0,43.0,-100.00,WSW,240,0.0,0.0,81,0.00,,,0.00,,2013-06-03 08:32:00,
2013-06-03 03:42:00,48.0,43.0,-100.00,WSW,240,0.0,0.0,81,0.00,,,0.00,,2013-06-03 08:42:00,
2013-06-03 03:52:00,47.0,43.0,-100.00,ENE,60,0.0,0.0,82,0.00,,,0.00,,2013-06-03 08:52:00,
2013-06-03 04:02:00,48.0,43.0,-100.00,NE,45,0.0,0.0,81,0.00,,,0.00,,2013-06-03 09:02:00,
2013-06-03 04:12:00,47.0,43.0,-100.00,NNE,20,0.0,0.0,81,0.00,,,0.00,,2013-06-03 09:12:00,
2013-06-03 04:22:00,46.0,43.0,-100.00,SE,125,0.0,0.0,85,0.00,,,0.00,,2013-06-03 09:22:00,
2013-06-03 04:33:00,46.0,43.0,-100.00,SSE,160,0.0,0.0,85,0.00,,,0.00,,2013-06-03 09:33:00,
2013-06-03 04:42:00,47.0,43.0,-100.00,SE,130,0.0,0.0,85,0.00,,,0.00,,2013-06-03 09:42:00,
2013-06-03 04:52:00,47.0,43.0,-100.00,ESE,120,0.0,0.0,85,0.00,,,0.00,,2013-06-03 09:52:00,
2013-06-03 05:03:00,46.0,41.0,-100.00,NNE,30,0.0,0.0,86,0.00,,,0.00,,2013-06-03 10:03:00,
2013-06-03 05:12:00,45.0,41.0,-100.00,NNE,30,0.0,0.0,87,0.00,,,0.00,,2013-06-03 10:12:00,
2013-06-03 05:22:00,44.0,41.0,-100.00,ENE,60,0.0,0.0,89,0.00,,,0.00,,2013-06-03 10:22:00,
2013-06-03 05:33:00,45.0,43.0,-100.00,NE,55,0.0,0.0,90,0.00,,,0.00,,2013-06-03 10:33:00,
2013-06-03 05:42:00,45.0,43.0,-100.00,SE,130,0.0,0.0,89,0.00,,,0.00,,2013-06-03 10:42:00,
2013-06-03 05:52:00,45.0,43.0,-100.00,SSE,160,0.0,0.0,87,0.00,,,0.00,,2013-06-03 10:52:00,
2013-06-03 06:02:00,46.0,43.0,-100.00,East,85,0.0,0.0,85,0.00,,,0.00,,2013-06-03 11:02:00,
2013-06-03 06:12:00,47.0,43.0,-100.00,NE,50,0.0,0.0,83,0.00,,,0.00,,2013-06-03 11:12:00,
2013-06-03 06:22:00,47.0,43.0,-100.00,ESE,120,0.0,0.0,81,0.00,,,0.00,,2013-06-03 11:22:00,
2013-06-03 06:32:00,48.0,43.0,-100.00,ESE,120,0.0,0.0,82,0.00,,,0.00,,2013-06-03 11:32:00,
2013-06-03 06:42:00,48.0,43.0,-100.00,SE,130,0.0,0.0,82,0.00,,,0.00,,2013-06-03 11:42:00,
2013-06-03 06:52:00,48.0,45.0,-100.00,SE,145,0.0,0.0,85,0.00,,,0.00,,2013-06-03 11:52:00,
2013-06-03 07:02:00,49.0,45.0,-100.00,SSE,155,0.0,0.0,84,0.00,,,0.00,,2013-06-03 12:02:00,
2013-06-03 07:12:00,51.0,45.0,-100.00,SSE,150,0.0,0.0,81,0.00,,,0.00,,2013-06-03 12:12:00,
2013-06-03 07:22:00,51.0,45.0,-100.00,ESE,110,0.0,0.0,80,0.00,,,0.00,,2013-06-03 12:22:00,
2013-06-03 07:32:00,52.0,46.0,-100.00,East,100,0.0,0.0,78,0.00,,,0.00,,2013-06-03 12:32:00,
2013-06-03 07:42:00,54.0,46.0,-100.00,ESE,120,0.0,0.0,73,0.00,,,0.00,,2013-06-03 12:42:00,
2013-06-03 07:52:00,55.0,46.0,-100.00,SSW,200,0.0,0.0,72,0.00,,,0.00,,2013-06-03 12:52:00,
2013-06-03 08:02:00,56.0,46.0,-100.00,South,180,0.0,0.0,67,0.00,,,0.00,,2013-06-03 13:02:00,
2013-06-03 08:12:00,57.0,45.0,-100.00,South,185,0.0,0.0,64,0.00,,,0.00,,2013-06-03 13:12:00,
2013-06-03 08:22:00,57.0,45.0,-100.00,SSW,195,0.0,0.0,63,0.00,,,0.00,,2013-06-03 13:22:00,
2013-06-03 08:32:00,58.0,46.0,-100.00,South,185,0.0,0.0,64,0.00,,,0.00,,2013-06-03 13:32:00,
2013-06-03 08:42:00,59.0,46.0,-100.00,SSW,200,0.0,0.0,61,0.00,,,0.00,,2013-06-03 13:42:00,
2013-06-03 08:52:00,59.0,45.0,-100.00,SSW,200,0.0,0.0,58,0.00,,,0.00,,2013-06-03 13:52:00,
2013-06-03 09:02:00,61.0,45.0,-100.00,South,180,0.0,0.0,56,0.00,,,0.00,,2013-06-03 14:02:00,
2013-06-03 09:12:00,60.0,46.0,-100.00,South,175,0.0,0.0,58,0.00,,,0.00,,2013-06-03 14:12:00,
2013-06-03 09:22:00,62.0,45.0,-100.00,South,175,0.0,0.0,53,0.00,,,0.00,,2013-06-03 14:22:00,
2013-06-03 09:32:00,62.0,45.0,-100.00,South,185,0.0,0.0,50,0.00,,,0.00,,2013-06-03 14:32:00,
2013-06-03 09:42:00,63.0,45.0,-100.00,SSW,205,0.0,0.0,50,0.00,,,0.00,,2013-06-03 14:42:00,
2013-06-03 09:52:00,64.0,43.0,-100.00,South,185,0.0,0.0,47,0.00,,,0.00,,2013-06-03 14:52:00,
2013-06-03 10:02:00,65.0,46.0,-100.00,SW,225,0.0,0.0,49,0.00,,,0.00,,2013-06-03 15:02:00,
2013-06-03 10:12:00,65.0,45.0,-100.00,SSW,210,0.0,0.0,47,0.00,,,0.00,,2013-06-03 15:12:00,
2013-06-03 10:22:00,65.0,45.0,-100.00,SSW,205,0.0,0.0,45,0.00,,,0.00,,2013-06-03 15:22:00,
2013-06-03 10:33:00,66.0,43.0,-100.00,SSW,195,0.0,0.0,43,0.00,,,0.00,,2013-06-03 15:33:00,
2013-06-03 10:43:00,66.0,41.0,-100.00,SE,140,0.0,0.0,37,0.00,,,0.00,,2013-06-03 15:43:00,
2013-06-03 10:53:00,66.0,41.0,-100.00,South,190,0.0,0.0,39,0.00,,,0.00,,2013-06-03 15:53:00,
2013-06-03 11:03:00,67.0,39.0,-100.00,ESE,120,0.0,0.0,37,0.00,,,0.00,,2013-06-03 16:03:00,
2013-06-03 11:12:00,66.0,37.0,-100.00,South,170,0.0,0.0,36,0.00,,,0.00,,2013-06-03 16:12:00,
2013-06-03 11:23:00,66.0,39.0,-100.00,SSE,155,0.0,0.0,36,0.00,,,0.00,,2013-06-03 16:23:00,
2013-06-03 11:33:00,66.0,37.0,-100.00,SE,145,0.0,0.0,35,0.00,,,0.00,,2013-06-03 16:33:00,
2013-06-03 11:42:00,66.0,39.0,-100.00,SE,140,0.0,0.0,36,0.00,,,0.00,,2013-06-03 16:42:00,
2013-06-03 11:53:00,66.0,37.0,-100.00,NNE,20,0.0,0.0,34,0.00,,,0.00,,2013-06-03 16:53:00,
2013-06-03 12:02:00,67.0,37.0,-100.00,SSE,155,0.0,0.0,33,0.00,,,0.00,,2013-06-03 17:02:00,
2013-06-03 12:12:00,66.0,37.0,-100.00,SW,225,0.0,0.0,34,0.00,,,0.00,,2013-06-03 17:12:00,
2013-06-03 12:22:00,67.0,41.0,-100.00,SSW,210,0.0,0.0,37,0.00,,,0.00,,2013-06-03 17:22:00,
2013-06-03 12:33:00,67.0,41.0,-100.00,ESE,110,0.0,0.0,38,0.00,,,0.00,,2013-06-03 17:33:00,
2013-06-03 12:42:00,68.0,41.0,-100.00,SE,125,0.0,0.0,36,0.00,,,0.00,,2013-06-03 17:42:00,
2013-06-03 12:52:00,67.0,39.0,-100.00,East,95,0.0,0.0,35,0.00,,,0.00,,2013-06-03 17:52:00,
2013-06-03 13:02:00,67.0,39.0,-100.00,East,100,0.0,0.0,35,0.00,,,0.00,,2013-06-03 18:02:00,
2013-06-03 13:12:00,66.0,37.0,-100.00,ENE,70,0.0,0.0,34,0.00,,,0.00,,2013-06-03 18:12:00,
2013-06-03 13:22:00,66.0,39.0,-100.00,SE,135,0.0,0.0,36,0.00,,,0.00,,2013-06-03 18:22:00,
2013-06-03 13:32:00,66.0,39.0,-100.00,SE,140,0.0,0.0,37,0.00,,,0.00,,2013-06-03 18:32:00,
2013-06-03 13:42:00,67.0,39.0,-100.00,SSE,150,0.0,0.0,35,0.00,,,0.00,,2013-06-03 18:42:00,
2013-06-03 13:52:00,66.0,39.0,-100.00,SE,125,0.0,0.0,36,0.00,,,0.00,,2013-06-03 18:52:00,
2013-06-03 14:03:00,67.0,41.0,-100.00,ESE,110,0.0,0.0,38,0.00,,,0.00,,2013-06-03 19:03:00,
2013-06-03 14:12:00,66.0,41.0,-100.00,ESE,105,0.0,0.0,39,0.00,,,0.00,,2013-06-03 19:12:00,
2013-06-03 14:22:00,66.0,39.0,-100.00,ENE,75,0.0,0.0,38,0.00,,,0.00,,2013-06-03 19:22:00,
2013-06-03 14:32:00,66.0,41.0,-100.00,ENE,75,0.0,0.0,39,0.00,,,0.00,,2013-06-03 19:32:00,
2013-06-03 14:42:00,66.0,39.0,-100.00,ESE,115,0.0,0.0,38,0.00,,,0.00,,2013-06-03 19:42:00,
2013-06-03 14:52:00,66.0,39.0,-100.00,ESE,105,0.0,0.0,36,0.00,,,0.00,,2013-06-03 19:52:00,
2013-06-03 15:02:00,66.0,41.0,-100.00,ESE,105,0.0,0.0,40,0.00,,,0.00,,2013-06-03 20:02:00,
2013-06-03 15:12:00,66.0,39.0,-100.00,East,90,0.0,0.0,38,0.00,,,0.00,,2013-06-03 20:12:00,
2013-06-03 15:22:00,66.0,41.0,-100.00,ESE,110,0.0,0.0,41,0.00,,,0.00,,2013-06-03 20:22:00,
2013-06-03 15:32:00,66.0,39.0,-100.00,ESE,115,0.0,0.0,37,0.00,,,0.00,,2013-06-03 20:32:00,
2013-06-03 15:42:00,69.0,41.0,-100.00,East,100,0.0,0.0,36,0.00,,,0.00,,2013-06-03 20:42:00,
2013-06-03 15:52:00,68.0,39.0,-100.00,ESE,115,0.0,0.0,34,0.00,,,0.00,,2013-06-03 20:52:00,
2013-06-03 16:02:00,68.0,41.0,-100.00,SE,125,0.0,0.0,36,0.00,,,0.00,,2013-06-03 21:02:00,
2013-06-03 16:12:00,69.0,41.0,-100.00,ESE,115,0.0,0.0,37,0.00,,,0.00,,2013-06-03 21:12:00,
2013-06-03 16:22:00,68.0,39.0,-100.00,East,95,0.0,0.0,35,0.00,,,0.00,,2013-06-03 21:22:00,
2013-06-03 16:33:00,69.0,41.0,-100.00,SE,125,0.0,0.0,36,0.00,,,0.00,,2013-06-03 21:33:00,
2013-06-03 16:43:00,69.0,39.0,-100.00,ESE,105,0.0,0.0,34,0.00,,,0.00,,2013-06-03 21:43:00,
2013-06-03 16:52:00,70.0,41.0,-100.00,East,100,0.0,0.0,34,0.00,,,0.00,,2013-06-03 21:52:00,
2013-06-03 17:03:00,69.0,41.0,-100.00,East,85,0.0,0.0,35,0.00,,,0.00,,2013-06-03 22:03:00,
2013-06-03 17:12:00,69.0,43.0,-100.00,East,100,0.0,0.0,37,0.00,,,0.00,,2013-06-03 22:12:00,
2013-06-03 17:22:00,67.0,41.0,-100.00,SE,125,0.0,0.0,37,0.00,,,0.00,,2013-06-03 22:22:00,
2013-06-03 17:32:00,67.0,41.0,-100.00,SE,125,0.0,0.0,37,0.00,,,0.00,,2013-06-03 22:32:00,
2013-06-03 17:42:00,67.0,41.0,-100.00,ESE,120,0.0,0.0,39,0.00,,,0.00,,2013-06-03 22:42:00,
2013-06-03 17:52:00,67.0,43.0,-100.00,SE,125,0.0,0.0,40,0.00,,,0.00,,2013-06-03 22:52:00,
2013-06-03 18:02:00,66.0,43.0,-100.00,ESE,105,0.0,0.0,42,0.00,,,0.00,,2013-06-03 23:02:00,
2013-06-03 18:12:00,66.0,43.0,-100.00,ESE,105,0.0,0.0,41,0.00,,,0.00,,2013-06-03 23:12:00,
2013-06-03 18:22:00,66.0,43.0,-100.00,SE,125,0.0,0.0,40,0.00,,,0.00,,2013-06-03 23:22:00,
2013-06-03 18:32:00,67.0,41.0,-100.00,SE,130,0.0,0.0,40,0.00,,,0.00,,2013-06-03 23:32:00,
2013-06-03 18:42:00,67.0,43.0,-100.00,ESE,115,0.0,0.0,42,0.00,,,0.00,,2013-06-03 23:42:00,
2013-06-03 18:52:00,67.0,43.0,-100.00,ESE,110,0.0,0.0,41,0.00,,,0.00,,2013-06-03 23:52:00,
2013-06-03 19:02:00,67.0,43.0,-100.00,ESE,105,0.0,0.0,41,0.00,,,0.00,,2013-06-04 00:02:00,
2013-06-03 19:12:00,67.0,41.0,-100.00,East,100,0.0,0.0,38,0.00,,,0.00,,2013-06-04 00:12:00,
2013-06-03 19:22:00,67.0,41.0,-100.00,East,100,0.0,0.0,39,0.00,,,0.00,,2013-06-04 00:22:00,
2013-06-03 19:32:00,66.0,41.0,-100.00,East,100,0.0,0.0,39,0.00,,,0.00,,2013-06-04 00:32:00,
2013-06-03 19:42:00,66.0,43.0,-100.00,East,95,0.0,0.0,42,0.00,,,0.00,,2013-06-04 00:42:00,
2013-06-03 19:52:00,66.0,43.0,-100.00,ESE,105,0.0,0.0,42,0.00,,,0.00,,2013-06-04 00:52:00,
2013-06-03 20:02:00,66.0,43.0,-100.00,East,100,0.0,0.0,42,0.00,,,0.00,,2013-06-04 01:02:00,
2013-06-03 20:12:00,65.0,43.0,-100.00,East,95,0.0,0.0,44,0.00,,,0.00,,2013-06-04 01:12:00,
2013-06-03 20:22:00,65.0,45.0,-100.00,East,100,0.0,0.0,45,0.00,,,0.00,,2013-06-04 01:22:00,
2013-06-03 20:32:00,65.0,45.0,-100.00,East,95,0.0,0.0,47,0.00,,,0.00,,2013-06-04 01:32:00,
2013-06-03 20:42:00,65.0,45.0,-100.00,East,95,0.0,0.0,46,0.00,,,0.00,,2013-06-04 01:42:00,
2013-06-03 20:52:00,65.0,43.0,-100.00,East,90,0.0,0.0,46,0.00,,,0.00,,2013-06-04 01:52:00,
2013-06-03 21:02:00,65.0,45.0,-100.00,East,90,0.0,0.0,46,0.00,,,0.00,,2013-06-04 02:02:00,
2013-06-03 21:12:00,64.0,45.0,-100.00,East,85,0.0,0.0,47,0.00,,,0.00,,2013-06-04 02:12:00,
2013-06-03 21:22:00,64.0,43.0,-100.00,East,90,0.0,0.0,47,0.00,,,0.00,,2013-06-04 02:22:00,
2013-06-03 21:32:00,64.0,45.0,-100.00,East,85,0.0,0.0,48,0.00,,,0.00,,2013-06-04 02:32:00,
2013-06-03 21:42:00,64.0,43.0,-100.00,East,90,0.0,0.0,47,0.00,,,0.00,,2013-06-04 02:42:00,
2013-06-03 21:52:00,63.0,45.0,-100.00,East,80,0.0,0.0,48,0.00,,,0.00,,2013-06-04 02:52:00,
2013-06-03 22:02:00,63.0,45.0,-100.00,East,90,0.0,0.0,49,0.00,,,0.00,,2013-06-04 03:02:00,
2013-06-03 22:12:00,63.0,45.0,-100.00,East,90,0.0,0.0,50,0.00,,,0.00,,2013-06-04 03:12:00,
2013-06-03 22:22:00,63.0,45.0,-100.00,East,100,0.0,0.0,51,0.00,,,0.00,,2013-06-04 03:22:00,
2013-06-03 22:32:00,62.0,45.0,-100.00,East,100,0.0,0.0,52,0.00,,,0.00,,2013-06-04 03:32:00,
2013-06-03 22:43:00,62.0,45.0,-100.00,East,95,0.0,0.0,52,0.00,,,0.00,,2013-06-04 03:43:00,
2013-06-03 22:53:00,63.0,45.0,-100.00,ESE,105,0.0,0.0,52,0.00,,,0.00,,2013-06-04 03:53:00,
2013-06-03 23:03:00,62.0,45.0,-100.00,East,100,0.0,0.0,52,0.00,,,0.00,,2013-06-04 04:03:00,
2013-06-03 23:13:00,62.0,45.0,-100.00,ESE,110,0.0,0.0,52,0.00,,,0.00,,2013-06-04 04:13:00,
2013-06-03 23:23:00,63.0,45.0,-100.00,ESE,105,0.0,0.0,52,0.00,,,0.00,,2013-06-04 04:23:00,
2013-06-03 23:33:00,62.0,45.0,-100.00,ESE,105,0.0,0.0,53,0.00,,,0.00,,2013-06-04 04:33:00,
2013-06-03 23:42:00,62.0,45.0,-100.00,ESE,105,0.0,0.0,53,0.00,,,0.00,,2013-06-04 04:42:00,
2013-06-03 23:53:00,62.0,45.0,-100.00,East,100,0.0,0.0,54,0.00,,,0.00,,2013-06-04 04:53:00,